createdAt,value
2022-09-24T00:00:26.380Z,9.747350
2022-09-24T00:01:26.460Z,9.747334
2022-09-24T00:02:26.386Z,9.747503
2022-09-24T00:03:26.440Z,9.747500
2022-09-24T00:04:26.352Z,9.747477
2022-09-24T00:05:26.336Z,9.747327
2022-09-24T00:06:26.332Z,9.747371
2022-09-24T00:07:26.325Z,9.747346
2022-09-24T00:08:26.344Z,9.747261
2022-09-24T00:09:26.313Z,9.747184
2022-09-24T00:10:26.305Z,9.747180
2022-09-24T00:11:26.297Z,9.747162
2022-09-24T00:12:26.301Z,9.747287
2022-09-24T00:13:26.312Z,9.747244
2022-09-24T00:14:26.277Z,9.747512
2022-09-24T00:15:26.267Z,9.747426
2022-09-24T00:16:26.375Z,9.747448
2022-09-24T00:17:26.252Z,9.747463
2022-09-24T00:18:26.269Z,9.747427
2022-09-24T00:19:26.250Z,9.747364
2022-09-24T00:20:26.232Z,9.747355
2022-09-24T00:21:26.218Z,9.747333
2022-09-24T00:22:26.215Z,9.747360
2022-09-24T00:23:26.230Z,9.747360
2022-09-24T00:24:26.202Z,9.747403
2022-09-24T00:25:26.191Z,9.747308
2022-09-24T00:26:26.182Z,9.747377
2022-09-24T00:27:26.176Z,9.747470
2022-09-24T00:28:26.310Z,9.747430
2022-09-24T00:29:26.158Z,9.747361
2022-09-24T00:30:26.164Z,9.747245
2022-09-24T00:31:26.154Z,9.747366
2022-09-24T00:32:26.144Z,9.747312
2022-09-24T00:33:26.161Z,9.747266
2022-09-24T00:34:26.115Z,9.747158
2022-09-24T00:35:26.116Z,9.747278
2022-09-24T00:36:26.109Z,9.747282
2022-09-24T00:37:26.104Z,9.747336
2022-09-24T00:38:26.091Z,9.747368
2022-09-24T00:39:26.107Z,9.747283
2022-09-24T00:40:26.116Z,9.747353
2022-09-24T00:41:26.064Z,9.747405
2022-09-24T00:42:26.057Z,9.747361
2022-09-24T00:43:26.052Z,9.747339
2022-09-24T00:44:26.068Z,9.747314
2022-09-24T00:45:26.040Z,9.747321
2022-09-24T00:46:26.092Z,9.747438
2022-09-24T00:47:26.026Z,9.747438
2022-09-24T00:48:26.016Z,9.747407
2022-09-24T00:49:26.031Z,9.747370
2022-09-24T00:50:25.998Z,9.747579
2022-09-24T00:51:25.994Z,9.747522
2022-09-24T00:52:25.975Z,9.747474
2022-09-24T00:53:25.974Z,9.747355
2022-09-24T00:54:25.989Z,9.747510
2022-09-24T00:55:25.956Z,9.747456
2022-09-24T00:56:25.955Z,9.747456
2022-09-24T00:57:25.946Z,9.747553
2022-09-24T00:58:25.931Z,9.747438
2022-09-24T00:59:25.949Z,9.747318
2022-09-24T01:00:26.065Z,9.747320
2022-09-24T01:01:25.955Z,9.747322
2022-09-24T01:02:25.968Z,9.747389
2022-09-24T01:03:25.885Z,9.747379
2022-09-24T01:04:25.911Z,9.747404
2022-09-24T01:05:25.874Z,9.747448
2022-09-24T01:06:25.869Z,9.747455
2022-09-24T01:07:25.854Z,9.747440
2022-09-24T01:08:25.862Z,9.747313
2022-09-24T01:09:25.865Z,9.747357
2022-09-24T01:10:25.836Z,9.747370
2022-09-24T01:11:25.852Z,9.747309
2022-09-24T01:12:25.828Z,9.747319
2022-09-24T01:13:25.809Z,9.747303
2022-09-24T01:14:25.838Z,9.747358
2022-09-24T01:15:25.798Z,9.747293
2022-09-24T01:16:25.831Z,9.747295
2022-09-24T01:17:25.782Z,9.747372
2022-09-24T01:18:25.778Z,9.747392
2022-09-24T01:19:25.797Z,9.747422
2022-09-24T01:20:25.838Z,9.747461
2022-09-24T01:21:25.751Z,9.747484
2022-09-24T01:22:25.755Z,9.747482
2022-09-24T01:23:25.738Z,9.747523
2022-09-24T01:24:25.749Z,9.747512
2022-09-24T01:25:25.721Z,9.747489
2022-09-24T01:26:25.712Z,9.747428
2022-09-24T01:27:25.709Z,9.747525
2022-09-24T01:28:25.699Z,9.747446
2022-09-24T01:29:25.727Z,9.747447
2022-09-24T01:30:25.751Z,9.747555
2022-09-24T01:31:25.718Z,9.747471
2022-09-24T01:32:30.187Z,9.747532
2022-09-24T01:33:27.663Z,9.747404
2022-09-24T01:34:25.687Z,9.747399
2022-09-24T01:35:25.651Z,9.747379
2022-09-24T01:36:25.633Z,9.747526
2022-09-24T01:37:25.647Z,9.747460
2022-09-24T01:38:25.621Z,9.747547
2022-09-24T01:39:25.616Z,9.747504
2022-09-24T01:40:25.671Z,9.747408
2022-09-24T01:41:25.609Z,9.747401
2022-09-24T01:42:25.596Z,9.747506
2022-09-24T01:43:25.588Z,9.747296
2022-09-24T01:44:25.578Z,9.747406
2022-09-24T01:45:25.597Z,9.747495
2022-09-24T01:46:25.609Z,9.747505
2022-09-24T01:47:25.576Z,9.747538
2022-09-24T01:48:25.555Z,9.747495
2022-09-24T01:49:25.562Z,9.747523
2022-09-24T01:50:25.556Z,9.747488
2022-09-24T01:51:25.524Z,9.747383
2022-09-24T01:52:25.520Z,9.747369
2022-09-24T01:53:25.511Z,9.747464
2022-09-24T01:54:25.508Z,9.747444
2022-09-24T01:55:25.531Z,9.747442
2022-09-24T01:56:25.486Z,9.747469
2022-09-24T01:57:26.478Z,9.747463
2022-09-24T01:58:25.486Z,9.747404
2022-09-24T01:59:25.468Z,9.747378
2022-09-24T02:00:25.479Z,9.747312
2022-09-24T02:01:25.556Z,9.747409
2022-09-24T02:02:25.449Z,9.747346
2022-09-24T02:03:25.430Z,9.747334
2022-09-24T02:04:25.435Z,9.747451
2022-09-24T02:05:25.445Z,9.747497
2022-09-24T02:06:25.412Z,9.747314
2022-09-24T02:07:25.401Z,9.747388
2022-09-24T02:08:25.398Z,9.747503
2022-09-24T02:09:25.388Z,9.747475
2022-09-24T02:10:25.402Z,9.747443
2022-09-24T02:11:25.376Z,9.747369
2022-09-24T02:12:25.389Z,9.747388
2022-09-24T02:13:25.360Z,9.747388
2022-09-24T02:14:25.348Z,9.747375
2022-09-24T02:15:30.127Z,9.747411
2022-09-24T02:16:27.363Z,9.747393
2022-09-24T02:17:25.330Z,9.747478
2022-09-24T02:18:25.325Z,9.747529
2022-09-24T02:19:25.312Z,9.747504
2022-09-24T02:20:25.317Z,9.747457
2022-09-24T02:21:26.294Z,9.747456
2022-09-24T02:22:25.366Z,9.747641
2022-09-24T02:23:25.281Z,9.747514
2022-09-24T02:24:25.274Z,9.747478
2022-09-24T02:25:25.288Z,9.747581
2022-09-24T02:26:25.260Z,9.747573
2022-09-24T02:27:25.255Z,9.747701
2022-09-24T02:28:25.241Z,9.747618
2022-09-24T02:29:25.245Z,9.747564
2022-09-24T02:30:25.273Z,9.747522
2022-09-24T02:31:25.297Z,9.747518
2022-09-24T02:32:25.229Z,9.747512
2022-09-24T02:33:25.210Z,9.747591
2022-09-24T02:34:25.202Z,9.747546
2022-09-24T02:35:25.228Z,9.747524
2022-09-24T02:36:25.186Z,9.747437
2022-09-24T02:37:25.179Z,9.747493
2022-09-24T02:38:25.168Z,9.747579
2022-09-24T02:39:25.159Z,9.747528
2022-09-24T02:40:25.202Z,9.747432
2022-09-24T02:41:25.148Z,9.747447
2022-09-24T02:42:25.135Z,9.747485
2022-09-24T02:43:25.130Z,9.747496
2022-09-24T02:44:25.134Z,9.747537
2022-09-24T02:45:25.143Z,9.747502
2022-09-24T02:46:25.168Z,9.747510
2022-09-24T02:47:25.099Z,9.747365
2022-09-24T02:48:25.097Z,9.747458
2022-09-24T02:49:25.095Z,9.747489
2022-09-24T02:50:25.101Z,9.747501
2022-09-24T02:51:25.059Z,9.747578
2022-09-24T02:52:25.069Z,9.747671
2022-09-24T02:53:25.075Z,9.747665
2022-09-24T02:54:25.052Z,9.747648
2022-09-24T02:55:25.065Z,9.747532
2022-09-24T02:56:25.031Z,9.747450
2022-09-24T02:57:25.022Z,9.747558
2022-09-24T02:58:25.013Z,9.747508
2022-09-24T02:59:25.002Z,9.747535
2022-09-24T03:00:25.019Z,9.747550
2022-09-24T03:01:25.024Z,9.747506
2022-09-24T03:02:25.084Z,9.747492
2022-09-24T03:03:24.974Z,9.747534
2022-09-24T03:04:24.967Z,9.747508
2022-09-24T03:05:24.985Z,9.747482
2022-09-24T03:06:24.946Z,9.747498
2022-09-24T03:07:24.934Z,9.747473
2022-09-24T03:08:24.944Z,9.747542
2022-09-24T03:09:24.924Z,9.747596
2022-09-24T03:10:24.947Z,9.747555
2022-09-24T03:11:24.911Z,9.747468
2022-09-24T03:12:24.907Z,9.747475
2022-09-24T03:13:24.905Z,9.747522
2022-09-24T03:14:24.885Z,9.747468
2022-09-24T03:15:24.914Z,9.747458
2022-09-24T03:16:24.963Z,9.747442
2022-09-24T03:17:25.867Z,9.747591
2022-09-24T03:18:24.853Z,9.747450
2022-09-24T03:19:24.847Z,9.747516
2022-09-24T03:20:24.875Z,9.747540
2022-09-24T03:21:24.834Z,9.747429
2022-09-24T03:22:24.820Z,9.747477
2022-09-24T03:23:24.815Z,9.747382
2022-09-24T03:24:24.812Z,9.747435
2022-09-24T03:25:24.806Z,9.747519
2022-09-24T03:26:24.825Z,9.747381
2022-09-24T03:27:24.784Z,9.747317
2022-09-24T03:28:24.784Z,9.747301
2022-09-24T03:29:24.766Z,9.747476
2022-09-24T03:30:24.795Z,9.747510
2022-09-24T03:31:24.781Z,9.747489
2022-09-24T03:32:24.753Z,9.747522
2022-09-24T03:33:24.749Z,9.747445
2022-09-24T03:34:24.736Z,9.747456
2022-09-24T03:35:24.727Z,9.747482
2022-09-24T03:36:24.745Z,9.747476
2022-09-24T03:37:24.710Z,9.747331
2022-09-24T03:38:24.710Z,9.747411
2022-09-24T03:39:24.697Z,9.747428
2022-09-24T03:40:24.717Z,9.747312
2022-09-24T03:41:24.715Z,9.747433
2022-09-24T03:42:24.670Z,9.747555
2022-09-24T03:43:24.671Z,9.747416
2022-09-24T03:44:24.658Z,9.747490
2022-09-24T03:45:24.648Z,9.747458
2022-09-24T03:46:24.713Z,9.747409
2022-09-24T03:47:24.637Z,9.747400
2022-09-24T03:48:57.957Z,9.747460
2022-09-24T03:49:24.621Z,9.747425
2022-09-24T03:50:24.646Z,9.747425
2022-09-24T03:51:24.602Z,9.747512
2022-09-24T03:52:24.597Z,9.747432
2022-09-24T03:53:24.594Z,9.747437
2022-09-24T03:54:24.587Z,9.747485
2022-09-24T03:55:24.606Z,9.747432
2022-09-24T03:56:24.572Z,9.747464
2022-09-24T03:57:24.562Z,9.747409
2022-09-24T03:58:24.619Z,9.747442
2022-09-24T03:59:24.549Z,9.747426
2022-09-24T04:00:24.561Z,9.747421
2022-09-24T04:01:24.595Z,9.747430
2022-09-24T04:02:24.678Z,9.747405
2022-09-24T04:03:24.565Z,9.747404
2022-09-24T04:04:24.505Z,9.747443
2022-09-24T04:05:24.528Z,9.747457
2022-09-24T04:06:26.059Z,9.747489
2022-09-24T04:07:25.487Z,9.747457
2022-09-24T04:08:24.478Z,9.747412
2022-09-24T04:09:24.479Z,9.747378
2022-09-24T04:10:24.493Z,9.747390
2022-09-24T04:11:24.462Z,9.747440
2022-09-24T04:12:24.452Z,9.747344
2022-09-24T04:13:24.446Z,9.747403
2022-09-24T04:14:24.437Z,9.747339
2022-09-24T04:15:24.487Z,9.747381
2022-09-24T04:16:24.482Z,9.747485
2022-09-24T04:17:24.413Z,9.747426
2022-09-24T04:18:24.413Z,9.747276
2022-09-24T04:19:24.396Z,9.747428
2022-09-24T04:20:24.394Z,9.747443
2022-09-24T04:21:24.413Z,9.747355
2022-09-24T04:22:24.390Z,9.747355
2022-09-24T04:23:24.369Z,9.747418
2022-09-24T04:24:24.365Z,9.747348
2022-09-24T04:25:24.352Z,9.747307
2022-09-24T04:26:24.376Z,9.747232
2022-09-24T04:27:24.340Z,9.747346
2022-09-24T04:28:24.328Z,9.747340
2022-09-24T04:29:24.326Z,9.747235
2022-09-24T04:30:24.315Z,9.747266
2022-09-24T04:31:24.368Z,9.747243
2022-09-24T04:32:24.332Z,9.747169
2022-09-24T04:33:24.294Z,9.747222
2022-09-24T04:34:24.294Z,9.747199
2022-09-24T04:35:24.283Z,9.747325
2022-09-24T04:36:24.299Z,9.747291
2022-09-24T04:37:24.264Z,9.747396
2022-09-24T04:38:24.257Z,9.747323
2022-09-24T04:39:24.251Z,9.747268
2022-09-24T04:40:24.258Z,9.747289
2022-09-24T04:41:24.257Z,9.747265
2022-09-24T04:42:24.229Z,9.747276
2022-09-24T04:43:24.221Z,9.747451
2022-09-24T04:44:24.219Z,9.747424
2022-09-24T04:45:24.204Z,9.747349
2022-09-24T04:46:24.308Z,9.747414
2022-09-24T04:47:24.189Z,9.747261
2022-09-24T04:48:25.062Z,9.747226
2022-09-24T04:49:24.169Z,9.747201
2022-09-24T04:50:24.177Z,9.747312
2022-09-24T04:51:24.182Z,9.747364
2022-09-24T04:52:24.156Z,9.747170
2022-09-24T04:53:24.139Z,9.747287
2022-09-24T04:54:24.142Z,9.747262
2022-09-24T04:55:24.150Z,9.747314
2022-09-24T04:56:24.151Z,9.747169
2022-09-24T04:57:24.116Z,9.747176
2022-09-24T04:58:24.108Z,9.747272
2022-09-24T04:59:24.098Z,9.747266
2022-09-24T05:00:24.101Z,9.747220
2022-09-24T05:01:24.156Z,9.747245
2022-09-24T05:02:24.321Z,9.747138
2022-09-24T05:03:24.070Z,9.747282
2022-09-24T05:04:24.065Z,9.747211
2022-09-24T05:05:24.054Z,9.747321
2022-09-24T05:06:24.078Z,9.747179
2022-09-24T05:07:24.040Z,9.747263
2022-09-24T05:08:24.038Z,9.747354
2022-09-24T05:09:24.026Z,9.747178
2022-09-24T05:10:24.025Z,9.747154
2022-09-24T05:11:24.037Z,9.747169
2022-09-24T05:12:24.001Z,9.747162
2022-09-24T05:13:23.998Z,9.747256
2022-09-24T05:14:23.984Z,9.747298
2022-09-24T05:15:23.989Z,9.747227
2022-09-24T05:16:24.027Z,9.747090
2022-09-24T05:17:23.960Z,9.747171
2022-09-24T05:18:23.959Z,9.747256
2022-09-24T05:19:23.951Z,9.747316
2022-09-24T05:20:23.937Z,9.747274
2022-09-24T05:21:23.959Z,9.747226
2022-09-24T05:22:23.925Z,9.747263
2022-09-24T05:23:23.936Z,9.747351
2022-09-24T05:24:23.905Z,9.747294
2022-09-24T05:25:23.891Z,9.747340
2022-09-24T05:26:24.917Z,9.747332
2022-09-24T05:27:23.884Z,9.747344
2022-09-24T05:28:23.875Z,9.747305
2022-09-24T05:29:23.871Z,9.747248
2022-09-24T05:30:23.862Z,9.747352
2022-09-24T05:31:23.961Z,9.747318
2022-09-24T05:32:23.849Z,9.747375
2022-09-24T05:33:23.836Z,9.747367
2022-09-24T05:34:23.831Z,9.747350
2022-09-24T05:35:23.827Z,9.747287
2022-09-24T05:36:23.846Z,9.747360
2022-09-24T05:37:23.812Z,9.747329
2022-09-24T05:38:23.800Z,9.747533
2022-09-24T05:39:23.792Z,9.747218
2022-09-24T05:40:23.886Z,9.747250
2022-09-24T05:41:23.810Z,9.747286
2022-09-24T05:42:23.768Z,9.747265
2022-09-24T05:43:23.763Z,9.747285
2022-09-24T05:44:23.762Z,9.747288
2022-09-24T05:45:23.748Z,9.747290
2022-09-24T05:46:23.808Z,9.747408
2022-09-24T05:47:23.733Z,9.747291
2022-09-24T05:48:23.724Z,9.747367
2022-09-24T05:49:23.722Z,9.747331
2022-09-24T05:50:23.721Z,9.747367
2022-09-24T05:51:23.737Z,9.747306
2022-09-24T05:52:23.698Z,9.747238
2022-09-24T05:53:23.687Z,9.747346
2022-09-24T05:54:23.679Z,9.747375
2022-09-24T05:55:23.683Z,9.747331
2022-09-24T05:56:23.701Z,9.747393
2022-09-24T05:57:23.659Z,9.747339
2022-09-24T05:58:23.659Z,9.747365
2022-09-24T05:59:23.646Z,9.747468
2022-09-24T06:00:23.631Z,9.747345
2022-09-24T06:01:23.690Z,9.747339
2022-09-24T06:02:23.688Z,9.747449
2022-09-24T06:03:23.679Z,9.747426
2022-09-24T06:04:23.608Z,9.747480
2022-09-24T06:05:23.605Z,9.747432
2022-09-24T06:06:23.687Z,9.747380
2022-09-24T06:07:23.585Z,9.747392
2022-09-24T06:08:23.573Z,9.747376
2022-09-24T06:09:23.580Z,9.747403
2022-09-24T06:10:23.569Z,9.747477
2022-09-24T06:11:23.584Z,9.747422
2022-09-24T06:12:23.557Z,9.747464
2022-09-24T06:13:23.542Z,9.747512
2022-09-24T06:14:23.533Z,9.747409
2022-09-24T06:15:23.526Z,9.747331
2022-09-24T06:16:23.735Z,9.747403
2022-09-24T06:17:23.529Z,9.747506
2022-09-24T06:18:23.504Z,9.747509
2022-09-24T06:19:23.509Z,9.747496
2022-09-24T06:20:23.526Z,9.747457
2022-09-24T06:21:23.699Z,9.747518
2022-09-24T06:22:28.194Z,9.747503
2022-09-24T06:23:25.493Z,9.747526
2022-09-24T06:24:23.501Z,9.747426
2022-09-24T06:25:23.451Z,9.747208
2022-09-24T06:26:23.467Z,9.747187
2022-09-24T06:27:23.439Z,9.747444
2022-09-24T06:28:23.458Z,9.747422
2022-09-24T06:29:23.427Z,9.747411
2022-09-24T06:30:23.425Z,9.747480
2022-09-24T06:31:23.492Z,9.747357
2022-09-24T06:32:23.404Z,9.747426
2022-09-24T06:33:23.394Z,9.747367
2022-09-24T06:34:23.390Z,9.747314
2022-09-24T06:35:23.385Z,9.747474
2022-09-24T06:36:23.415Z,9.747436
2022-09-24T06:37:23.365Z,9.747446
2022-09-24T06:38:23.359Z,9.747550
2022-09-24T06:39:23.407Z,9.747493
2022-09-24T06:40:23.495Z,9.747366
2022-09-24T06:41:23.370Z,9.747380
2022-09-24T06:42:23.320Z,9.747222
2022-09-24T06:43:23.326Z,9.747218
2022-09-24T06:44:23.312Z,9.747349
2022-09-24T06:45:23.306Z,9.747361
2022-09-24T06:46:23.549Z,9.747379
2022-09-24T06:47:23.290Z,9.747341
2022-09-24T06:48:23.290Z,9.747266
2022-09-24T06:49:23.276Z,9.747396
2022-09-24T06:50:23.272Z,9.747314
2022-09-24T06:51:23.267Z,9.747355
2022-09-24T06:52:24.237Z,9.747464
2022-09-24T06:53:23.250Z,9.747330
2022-09-24T06:54:23.235Z,9.747363
2022-09-24T06:55:23.234Z,9.747387
2022-09-24T06:56:23.248Z,9.747422
2022-09-24T06:57:28.028Z,9.747472
2022-09-24T06:58:25.203Z,9.747391
2022-09-24T06:59:23.192Z,9.747222
2022-09-24T07:00:23.201Z,9.747342
2022-09-24T07:01:23.326Z,9.747277
2022-09-24T07:02:23.290Z,9.747398
2022-09-24T07:03:23.179Z,9.747359
2022-09-24T07:04:23.166Z,9.747248
2022-09-24T07:05:23.165Z,9.747452
2022-09-24T07:06:23.148Z,9.747382
2022-09-24T07:07:23.175Z,9.747332
2022-09-24T07:08:23.129Z,9.747462
2022-09-24T07:09:23.132Z,9.747428
2022-09-24T07:10:23.119Z,9.747477
2022-09-24T07:11:23.113Z,9.747438
2022-09-24T07:12:23.137Z,9.747468
2022-09-24T07:13:23.098Z,9.747458
2022-09-24T07:14:23.083Z,9.747442
2022-09-24T07:15:23.077Z,9.747412
2022-09-24T07:16:23.137Z,9.747390
2022-09-24T07:17:23.102Z,9.747348
2022-09-24T07:18:23.063Z,9.747400
2022-09-24T07:19:23.067Z,9.747329
2022-09-24T07:20:23.041Z,9.747325
2022-09-24T07:21:23.021Z,9.747374
2022-09-24T07:22:23.051Z,9.747517
2022-09-24T07:23:23.013Z,9.747472
2022-09-24T07:24:23.006Z,9.747475
2022-09-24T07:25:23.000Z,9.747437
2022-09-24T07:26:22.989Z,9.747501
2022-09-24T07:27:23.013Z,9.747487
2022-09-24T07:28:22.970Z,9.747432
2022-09-24T07:29:22.963Z,9.747423
2022-09-24T07:30:23.046Z,9.747360
2022-09-24T07:31:23.007Z,9.747410
2022-09-24T07:32:27.453Z,9.747361
2022-09-24T07:33:24.931Z,9.747365
2022-09-24T07:34:22.918Z,9.747352
2022-09-24T07:35:22.912Z,9.747375
2022-09-24T07:36:22.906Z,9.747378
2022-09-24T07:37:22.921Z,9.747317
2022-09-24T07:38:22.886Z,9.747345
2022-09-24T07:39:22.928Z,9.747356
2022-09-24T07:40:22.938Z,9.747363
2022-09-24T07:41:22.865Z,9.747338
2022-09-24T07:42:22.950Z,9.747358
2022-09-24T07:43:22.848Z,9.747364
2022-09-24T07:44:22.841Z,9.747408
2022-09-24T07:45:22.833Z,9.747384
2022-09-24T07:46:22.865Z,9.747382
2022-09-24T07:47:22.843Z,9.747439
2022-09-24T07:48:22.805Z,9.747398
2022-09-24T07:49:22.806Z,9.747462
2022-09-24T07:50:22.828Z,9.747442
2022-09-24T07:51:22.790Z,9.747412
2022-09-24T07:52:22.806Z,9.747338
2022-09-24T07:53:22.782Z,9.747337
2022-09-24T07:54:22.762Z,9.747269
2022-09-24T07:55:22.759Z,9.747290
2022-09-24T07:56:22.755Z,9.747248
2022-09-24T07:57:22.766Z,9.747335
2022-09-24T07:58:22.735Z,9.747301
2022-09-24T07:59:22.721Z,9.747405
2022-09-24T08:00:22.781Z,9.747426
2022-09-24T08:01:22.791Z,9.747355
2022-09-24T08:02:22.732Z,9.747347
2022-09-24T08:03:22.774Z,9.747220
2022-09-24T08:04:22.734Z,9.747364
2022-09-24T08:05:22.678Z,9.747315
2022-09-24T08:06:22.673Z,9.747368
2022-09-24T08:07:22.695Z,9.747405
2022-09-24T08:08:22.654Z,9.747330
2022-09-24T08:09:22.651Z,9.747361
2022-09-24T08:10:22.708Z,9.747277
2022-09-24T08:11:22.634Z,9.747340
2022-09-24T08:12:22.663Z,9.747328
2022-09-24T08:13:27.364Z,9.747271
2022-09-24T08:14:24.612Z,9.747416
2022-09-24T08:15:22.621Z,9.747399
2022-09-24T08:16:22.646Z,9.747409
2022-09-24T08:17:22.612Z,9.747332
2022-09-24T08:18:22.626Z,9.747372
2022-09-24T08:19:22.570Z,9.747421
2022-09-24T08:20:22.566Z,9.747287
2022-09-24T08:21:22.556Z,9.747342
2022-09-24T08:22:22.609Z,9.747367
2022-09-24T08:23:22.546Z,9.747366
2022-09-24T08:24:22.535Z,9.747272
2022-09-24T08:25:22.558Z,9.747332
2022-09-24T08:26:22.524Z,9.747449
2022-09-24T08:27:22.541Z,9.747354
2022-09-24T08:28:22.508Z,9.747396
2022-09-24T08:29:22.499Z,9.747398
2022-09-24T08:30:22.523Z,9.747306
2022-09-24T08:31:22.585Z,9.747286
2022-09-24T08:32:22.513Z,9.747470
2022-09-24T08:33:22.467Z,9.747575
2022-09-24T08:34:22.473Z,9.747603
2022-09-24T08:35:22.455Z,9.747505
2022-09-24T08:36:22.444Z,9.747352
2022-09-24T08:37:22.491Z,9.747346
2022-09-24T08:38:22.429Z,9.747412
2022-09-24T08:39:22.420Z,9.747430
2022-09-24T08:40:22.478Z,9.747425
2022-09-24T08:41:22.409Z,9.747410
2022-09-24T08:42:22.445Z,9.747466
2022-09-24T08:43:22.396Z,9.747376
2022-09-24T08:44:22.381Z,9.747358
2022-09-24T08:45:22.383Z,9.747415
2022-09-24T08:46:22.526Z,9.747393
2022-09-24T08:47:22.392Z,9.747464
2022-09-24T08:48:22.352Z,9.747412
2022-09-24T08:49:22.341Z,9.747434
2022-09-24T08:50:23.347Z,9.747349
2022-09-24T08:51:22.338Z,9.747343
2022-09-24T08:52:22.354Z,9.747331
2022-09-24T08:53:22.327Z,9.747257
2022-09-24T08:54:22.327Z,9.747399
2022-09-24T08:55:22.304Z,9.747353
2022-09-24T08:56:22.299Z,9.747326
2022-09-24T08:57:22.286Z,9.747433
2022-09-24T08:58:22.312Z,9.747447
2022-09-24T08:59:22.264Z,9.747411
2022-09-24T09:00:22.252Z,9.747282
2022-09-24T09:01:22.321Z,9.747384
2022-09-24T09:02:22.305Z,9.747474
2022-09-24T09:03:22.274Z,9.747570
2022-09-24T09:04:22.228Z,9.747601
2022-09-24T09:05:22.219Z,9.747542
2022-09-24T09:06:22.220Z,9.747450
2022-09-24T09:07:22.226Z,9.747436
2022-09-24T09:08:47.059Z,9.747503
2022-09-24T09:09:24.197Z,9.747445
2022-09-24T09:10:22.187Z,9.747587
2022-09-24T09:11:22.217Z,9.747485
2022-09-24T09:12:22.174Z,9.747441
2022-09-24T09:13:22.195Z,9.747533
2022-09-24T09:14:22.153Z,9.747560
2022-09-24T09:15:22.147Z,9.747336
2022-09-24T09:16:22.176Z,9.747509
2022-09-24T09:17:22.125Z,9.747145
2022-09-24T09:18:22.179Z,9.747412
2022-09-24T09:19:22.103Z,9.747336
2022-09-24T09:20:22.127Z,9.747298
2022-09-24T09:21:22.105Z,9.747512
2022-09-24T09:22:22.088Z,9.747471
2022-09-24T09:23:22.108Z,9.747396
2022-09-24T09:24:22.071Z,9.747232
2022-09-24T09:25:22.068Z,9.747652
2022-09-24T09:26:22.057Z,9.747505
2022-09-24T09:27:22.050Z,9.747306
2022-09-24T09:28:22.073Z,9.747288
2022-09-24T09:29:22.069Z,9.747387
2022-09-24T09:30:22.067Z,9.747430
2022-09-24T09:31:22.103Z,9.747402
2022-09-24T09:32:22.011Z,9.747444
2022-09-24T09:33:22.035Z,9.747342
2022-09-24T09:34:22.060Z,9.747400
2022-09-24T09:35:22.009Z,9.747375
2022-09-24T09:36:21.984Z,9.747455
2022-09-24T09:37:25.735Z,9.747447
2022-09-24T09:38:23.007Z,9.747421
2022-09-24T09:39:21.963Z,9.747419
2022-09-24T09:40:22.006Z,9.747279
2022-09-24T09:41:21.949Z,9.747342
2022-09-24T09:42:21.943Z,9.747473
2022-09-24T09:43:21.958Z,9.747375
2022-09-24T09:44:21.931Z,9.747286
2022-09-24T09:45:26.913Z,9.747260
2022-09-24T09:46:23.956Z,9.747377
2022-09-24T09:47:21.892Z,9.747349
2022-09-24T09:48:22.924Z,9.747288
2022-09-24T09:49:21.889Z,9.747254
2022-09-24T09:50:21.882Z,9.747261
2022-09-24T09:51:23.051Z,9.747290
2022-09-24T09:52:22.861Z,9.747341
2022-09-24T09:53:21.888Z,9.747375
2022-09-24T09:54:21.848Z,9.747237
2022-09-24T09:55:21.908Z,9.747306
2022-09-24T09:56:21.844Z,9.747380
2022-09-24T09:57:21.826Z,9.747252
2022-09-24T09:58:21.820Z,9.747280
2022-09-24T09:59:25.704Z,9.747282
2022-09-24T10:00:23.809Z,9.747366
2022-09-24T10:01:21.797Z,9.747252
2022-09-24T10:02:21.859Z,9.747278
2022-09-24T10:03:21.823Z,9.747310
2022-09-24T10:04:21.797Z,9.747282
2022-09-24T10:05:27.032Z,9.747318
2022-09-24T10:06:23.751Z,9.747300
2022-09-24T10:07:21.742Z,9.747269
2022-09-24T10:08:21.739Z,9.747293
2022-09-24T10:09:21.755Z,9.747270
2022-09-24T10:10:21.721Z,9.747230
2022-09-24T10:11:21.710Z,9.747304
2022-09-24T10:12:21.705Z,9.747292
2022-09-24T10:13:21.705Z,9.747400
2022-09-24T10:14:21.759Z,9.747379
2022-09-24T10:15:21.682Z,9.747231
2022-09-24T10:16:21.721Z,9.747322
2022-09-24T10:17:21.668Z,9.747393
2022-09-24T10:18:21.653Z,9.747349
2022-09-24T10:19:22.681Z,9.747306
2022-09-24T10:20:21.650Z,9.747382
2022-09-24T10:21:24.816Z,9.747381
2022-09-24T10:22:23.626Z,9.747411
2022-09-24T10:23:21.620Z,9.747426
2022-09-24T10:24:21.636Z,9.747413
2022-09-24T10:25:21.595Z,9.747459
2022-09-24T10:26:22.598Z,9.747408
2022-09-24T10:27:21.595Z,9.747392
2022-09-24T10:28:21.582Z,9.747440
2022-09-24T10:29:21.608Z,9.747228
2022-09-24T10:30:21.568Z,9.747285
2022-09-24T10:31:21.668Z,9.747323
2022-09-24T10:32:21.560Z,9.747230
2022-09-24T10:33:21.547Z,9.747431
2022-09-24T10:34:21.571Z,9.747365
2022-09-24T10:35:21.534Z,9.747414
2022-09-24T10:36:21.520Z,9.747486
2022-09-24T10:37:21.522Z,9.747418
2022-09-24T10:38:21.517Z,9.747401
2022-09-24T10:39:21.549Z,9.747099
2022-09-24T10:40:21.550Z,9.747411
2022-09-24T10:41:21.509Z,9.747653
2022-09-24T10:42:21.508Z,9.747547
2022-09-24T10:43:21.509Z,9.747366
2022-09-24T10:44:22.070Z,9.747351
2022-09-24T10:45:21.490Z,9.747393
2022-09-24T10:46:22.543Z,9.747401
2022-09-24T10:47:21.435Z,9.747376
2022-09-24T10:48:21.456Z,9.747520
2022-09-24T10:49:21.449Z,9.747384
2022-09-24T10:50:21.437Z,9.747448
2022-09-24T10:51:26.589Z,9.747482
2022-09-24T10:52:23.399Z,9.747411
2022-09-24T10:53:21.388Z,9.747416
2022-09-24T10:54:21.407Z,9.747482
2022-09-24T10:55:21.382Z,9.747482
2022-09-24T10:56:21.367Z,9.747354
2022-09-24T10:57:21.368Z,9.747385
2022-09-24T10:58:21.360Z,9.747270
2022-09-24T10:59:21.373Z,9.747495
2022-09-24T11:00:21.353Z,9.747412
2022-09-24T11:01:21.351Z,9.747415
2022-09-24T11:02:21.323Z,9.747360
2022-09-24T11:03:21.381Z,9.747287
2022-09-24T11:04:21.369Z,9.747372
2022-09-24T11:05:21.312Z,9.747422
2022-09-24T11:06:21.296Z,9.747495
2022-09-24T11:07:21.319Z,9.747411
2022-09-24T11:08:22.193Z,9.747352
2022-09-24T11:09:21.303Z,9.747307
2022-09-24T11:10:21.300Z,9.747311
2022-09-24T11:11:21.263Z,9.747368
2022-09-24T11:12:21.252Z,9.747394
2022-09-24T11:13:21.244Z,9.747390
2022-09-24T11:14:21.303Z,9.747508
2022-09-24T11:15:21.231Z,9.747473
2022-09-24T11:16:21.356Z,9.747563
2022-09-24T11:17:21.220Z,9.747499
2022-09-24T11:18:21.217Z,9.747423
2022-09-24T11:19:21.240Z,9.747409
2022-09-24T11:20:21.200Z,9.747459
2022-09-24T11:21:21.194Z,9.747554
2022-09-24T11:22:21.180Z,9.747268
2022-09-24T11:23:21.205Z,9.747521
2022-09-24T11:24:21.192Z,9.747318
2022-09-24T11:25:21.165Z,9.747356
2022-09-24T11:26:21.150Z,9.747476
2022-09-24T11:27:21.151Z,9.747439
2022-09-24T11:28:21.136Z,9.747455
2022-09-24T11:29:21.152Z,9.747494
2022-09-24T11:30:21.140Z,9.747388
2022-09-24T11:31:21.177Z,9.747435
2022-09-24T11:32:21.110Z,9.747396
2022-09-24T11:33:23.187Z,9.747330
2022-09-24T11:34:22.119Z,9.747540
2022-09-24T11:35:21.080Z,9.747375
2022-09-24T11:36:21.082Z,9.747403
2022-09-24T11:37:21.066Z,9.747354
2022-09-24T11:38:21.066Z,9.747328
2022-09-24T11:39:21.076Z,9.747782
2022-09-24T11:40:21.149Z,9.747436
2022-09-24T11:41:21.043Z,9.747599
2022-09-24T11:42:21.031Z,9.747484
2022-09-24T11:43:21.023Z,9.747376
2022-09-24T11:44:21.050Z,9.747358